SASA/SLA METAR and TAF weather

Enter ICAO airport designator
Station Type Date Time Source
SASA METAR 2021/04/13 08:00 UTC NOAA

SASA 130800Z 00000KT CAVOK 11/10 Q1022


Station Type Date Time Source
SASA Decoded METAR 2021/04/13 08:00 UTC NOAA

Salta Aerodrome, Argentina (SASA) 24-51S 065-29W 1221M
Apr 13, 2021 - 04:00 AM EDT / 2021.04.13 0800 UTC
Wind: Calm:0
Visibility: greater than 7 mile(s):0
Temperature: 51 F (11 C)
Dew Point: 50 F (10 C)
Relative Humidity: 93%
Pressure (altimeter): 30.18 in. Hg (1022 hPa)
ob: SASA 130800Z 00000KT CAVOK 11/10 Q1022
cycle: 8

Station Type Date Time Source
SASA TAF 2021/04/13 06:06 UTC NOAA

TAF SASA 130500Z 1306/1406 07005KT 5000 BR SCT010 BKN025 TX25/1318Z TN09/1310Z
BECMG 1313/1315 05010KT 9999 NSW SCT030

Example: see airport list